Time;durP1;ratioP1;P1;durP2;ratioP2;P2;SDS_P1;SDS_P2;PMS_P1;PMS_P2;Temp;Humidity;BMP_temperature;BMP_pressure;BME280_temperature;BME280_humidity;BME280_pressure;Samples;Min_cycle;Max_cycle;Signal;HPM_P1;HPM_P2
2023/04/29 00:01:36;;;;;;;9.25;2.45;;;;;;;;;;5039802;28;20436;-81
2023/04/29 00:04:08;;;;;;;6.30;2.22;;;;;;;;;;5046798;28;20037;-81
2023/04/29 00:06:41;;;;;;;5.80;2.50;;;;;;;;;;5040506;28;20044;-82
2023/04/29 00:09:06;;;;;;;4.00;2.05;;;;;;;;;;5054640;28;20040;-81
2023/04/29 00:11:37;;;;;;;7.93;2.97;;;;;;;;;;5040685;28;20052;-80
2023/04/29 00:14:09;;;;;;;7.03;2.15;;;;;;;;;;5052790;28;20113;-82
2023/04/29 00:16:35;;;;;;;6.68;2.60;;;;;;;;;;5041512;28;20172;-81
2023/04/29 00:19:06;;;;;;;4.90;2.20;;;;;;;;;;5037337;28;20112;-82
2023/04/29 00:21:38;;;;;;;4.72;2.00;;;;;;;;;;5043286;28;20558;-81
2023/04/29 00:24:04;;;;;;;6.03;2.05;;;;;;;;;;5049726;28;20162;-81
2023/04/29 00:26:35;;;;;;;8.07;2.50;;;;;;;;;;5044754;28;20440;-81
2023/04/29 00:29:07;;;;;;;2.90;1.70;;;;;;;;;;5042627;28;20067;-81
2023/04/29 00:31:32;;;;;;;3.63;1.83;;;;;;;;;;5027398;28;20561;-81
2023/04/29 00:34:04;;;;;;;6.72;1.85;;;;;;;;;;5044102;28;20109;-81
2023/04/29 00:36:36;;;;;;;4.00;2.05;;;;;;;;;;5040066;28;20068;-82
2023/04/29 00:39:01;;;;;;;4.00;2.10;;;;;;;;;;5044056;28;20112;-82
2023/04/29 00:41:34;;;;;;;6.78;2.40;;;;;;;;;;5036098;28;20109;-81
2023/04/29 00:44:06;;;;;;;3.70;2.00;;;;;;;;;;5035499;28;20133;-81
2023/04/29 00:46:32;;;;;;;4.90;1.65;;;;;;;;;;5033258;28;20099;-80
2023/04/29 00:49:03;;;;;;;4.75;2.35;;;;;;;;;;5059537;28;20025;-82
2023/04/29 00:51:35;;;;;;;5.65;1.63;;;;;;;;;;5039351;28;20080;-81
2023/04/29 00:54:01;;;;;;;4.78;2.10;;;;;;;;;;5045574;28;20086;-82
2023/04/29 00:56:34;;;;;;;3.60;1.80;;;;;;;;;;5046308;28;20423;-80
2023/04/29 00:59:08;;;;;;;4.70;2.17;;;;;;;;;;5048713;28;20128;-81
2023/04/29 01:01:40;;;;;;;3.50;1.70;;;;;;;;;;5041793;28;20064;-81
2023/04/29 01:04:06;;;;;;;7.30;1.77;;;;;;;;;;5042895;28;20099;-82
2023/04/29 01:06:49;;;;;;;4.47;1.70;;;;;;;;;;5037080;28;20021;-80
2023/04/29 01:09:36;;;;;;;6.38;1.80;;;;;;;;;;5044206;28;20040;-81
2023/04/29 01:12:20;;;;;;;3.72;1.73;;;;;;;;;;5035456;28;20069;-82
2023/04/29 01:15:03;;;;;;;4.90;2.22;;;;;;;;;;5046041;28;20033;-82
2023/04/29 01:17:36;;;;;;;4.22;1.90;;;;;;;;;;5052092;28;20045;-81
2023/04/29 01:20:09;;;;;;;4.20;1.65;;;;;;;;;;5039941;28;20039;-81
2023/04/29 01:22:35;;;;;;;3.63;1.60;;;;;;;;;;5059110;28;20040;-80
2023/04/29 01:25:07;;;;;;;4.65;1.75;;;;;;;;;;5067645;28;20128;-81
2023/04/29 01:28:12;;;;;;;3.20;1.75;;;;;;;;;;5036720;28;20038;-80
2023/04/29 01:30:53;;;;;;;5.47;1.63;;;;;;;;;;5057720;28;20037;-81
2023/04/29 01:33:31;;;;;;;6.97;1.92;;;;;;;;;;5048168;28;20037;-81
2023/04/29 01:36:26;;;;;;;6.78;2.15;;;;;;;;;;5049627;28;20043;-82
2023/04/29 01:39:13;;;;;;;3.28;1.77;;;;;;;;;;5041094;28;20025;-81
2023/04/29 01:42:01;;;;;;;6.05;1.90;;;;;;;;;;5031178;28;20033;-81
2023/04/29 01:44:34;;;;;;;4.28;1.60;;;;;;;;;;5039499;28;20059;-81
2023/04/29 01:47:00;;;;;;;2.83;1.60;;;;;;;;;;5057406;28;20041;-81
2023/04/29 01:49:36;;;;;;;5.60;1.88;;;;;;;;;;5033747;28;20132;-82
2023/04/29 01:52:07;;;;;;;5.75;1.73;;;;;;;;;;5042044;28;20049;-81
2023/04/29 01:54:36;;;;;;;5.82;1.65;;;;;;;;;;5024984;28;20496;-81
2023/04/29 01:57:08;;;;;;;4.80;1.70;;;;;;;;;;5033181;28;20478;-81
2023/04/29 01:59:41;;;;;;;4.05;1.90;;;;;;;;;;5049856;28;20112;-80
2023/04/29 02:02:06;;;;;;;4.15;1.40;;;;;;;;;;5037639;28;20104;-81
2023/04/29 02:04:38;;;;;;;4.78;1.90;;;;;;;;;;5039799;28;20030;-81
2023/04/29 02:07:10;;;;;;;3.50;1.70;;;;;;;;;;5038106;28;20516;-82
2023/04/29 02:09:36;;;;;;;2.95;1.42;;;;;;;;;;5038332;28;20042;-81
2023/04/29 02:12:07;;;;;;;3.00;1.60;;;;;;;;;;5044688;28;20082;-81
2023/04/29 02:14:39;;;;;;;4.97;1.60;;;;;;;;;;5042560;28;20056;-80
2023/04/29 02:17:05;;;;;;;5.63;1.73;;;;;;;;;;5048945;28;20041;-82
2023/04/29 02:19:36;;;;;;;3.40;1.52;;;;;;;;;;5040391;28;20064;-81
2023/04/29 02:22:11;;;;;;;3.60;1.80;;;;;;;;;;5050733;28;20045;-82
2023/04/29 02:24:43;;;;;;;3.30;1.42;;;;;;;;;;5045160;28;20047;-80
2023/04/29 02:27:15;;;;;;;4.47;1.88;;;;;;;;;;5031421;28;20038;-81
2023/04/29 02:29:41;;;;;;;3.03;1.52;;;;;;;;;;5040794;28;20037;-81
2023/04/29 02:32:14;;;;;;;4.28;1.63;;;;;;;;;;5036657;28;20186;-81
2023/04/29 02:34:46;;;;;;;3.22;1.70;;;;;;;;;;5043945;28;20038;-79
2023/04/29 02:37:12;;;;;;;5.28;1.60;;;;;;;;;;5035064;28;20049;-81
2023/04/29 02:39:43;;;;;;;4.10;1.80;;;;;;;;;;5037110;28;20025;-80
2023/04/29 02:42:15;;;;;;;4.75;1.75;;;;;;;;;;5037672;28;20045;-81
2023/04/29 02:44:41;;;;;;;2.42;1.30;;;;;;;;;;5024263;28;20393;-81
2023/04/29 02:47:14;;;;;;;5.03;1.83;;;;;;;;;;5039425;28;20033;-81
2023/04/29 02:49:45;;;;;;;4.68;1.60;;;;;;;;;;5027960;28;20041;-80
2023/04/29 02:52:11;;;;;;;2.55;1.52;;;;;;;;;;5032408;28;20133;-80
2023/04/29 02:54:43;;;;;;;4.80;1.83;;;;;;;;;;5044611;28;20127;-80
2023/04/29 02:57:16;;;;;;;3.50;1.60;;;;;;;;;;5036274;28;20068;-80
2023/04/29 02:59:41;;;;;;;3.20;1.45;;;;;;;;;;5036337;28;20046;-81
2023/04/29 03:02:13;;;;;;;7.97;1.70;;;;;;;;;;5033346;28;20354;-81
2023/04/29 03:04:45;;;;;;;3.22;1.50;;;;;;;;;;5048169;28;20048;-80
2023/04/29 03:07:11;;;;;;;4.00;1.50;;;;;;;;;;5033149;28;20079;-81
2023/04/29 03:09:43;;;;;;;2.47;1.30;;;;;;;;;;5044867;28;20439;-80
2023/04/29 03:12:15;;;;;;;2.78;1.60;;;;;;;;;;5038865;28;20029;-80
2023/04/29 03:14:41;;;;;;;5.10;1.73;;;;;;;;;;5037262;28;20390;-81
2023/04/29 03:17:14;;;;;;;4.40;1.60;;;;;;;;;;5041211;28;20033;-81
2023/04/29 03:19:45;;;;;;;4.57;1.52;;;;;;;;;;5043907;28;20045;-81
2023/04/29 03:22:11;;;;;;;3.92;1.65;;;;;;;;;;5045976;28;20447;-82
2023/04/29 03:24:43;;;;;;;6.88;1.63;;;;;;;;;;5039879;28;20108;-80
2023/04/29 03:27:16;;;;;;;3.13;1.73;;;;;;;;;;5035082;28;20388;-80
2023/04/29 03:29:41;;;;;;;2.83;1.70;;;;;;;;;;5041703;28;20073;-81
2023/04/29 03:32:13;;;;;;;3.38;1.50;;;;;;;;;;5035832;28;20115;-81
2023/04/29 03:34:45;;;;;;;3.70;1.85;;;;;;;;;;5034921;28;20052;-81
2023/04/29 03:37:11;;;;;;;9.38;1.70;;;;;;;;;;5039926;28;20049;-81
2023/04/29 03:39:43;;;;;;;4.13;1.88;;;;;;;;;;5048242;28;20033;-80
2023/04/29 03:42:15;;;;;;;3.70;1.65;;;;;;;;;;5044104;28;20456;-81
2023/04/29 03:44:41;;;;;;;7.10;2.00;;;;;;;;;;5050254;28;20120;-80
2023/04/29 03:47:12;;;;;;;5.40;2.22;;;;;;;;;;5040231;28;20105;-82
2023/04/29 03:49:45;;;;;;;7.97;1.90;;;;;;;;;;5042868;28;20036;-80
2023/04/29 03:52:11;;;;;;;2.88;1.45;;;;;;;;;;5045160;28;20049;-81
2023/04/29 03:54:43;;;;;;;10.13;1.92;;;;;;;;;;5048828;28;20098;-82
2023/04/29 03:57:15;;;;;;;4.75;1.83;;;;;;;;;;5041232;28;20486;-82
2023/04/29 03:59:41;;;;;;;7.05;1.73;;;;;;;;;;5030905;28;20045;-82
2023/04/29 04:02:13;;;;;;;8.40;1.80;;;;;;;;;;5038574;28;20038;-82
2023/04/29 04:04:45;;;;;;;6.50;1.90;;;;;;;;;;5047698;28;20052;-81
2023/04/29 04:07:11;;;;;;;3.40;1.48;;;;;;;;;;5039569;28;20474;-82
2023/04/29 04:09:43;;;;;;;4.05;1.70;;;;;;;;;;5039527;28;20037;-81
2023/04/29 04:12:15;;;;;;;3.38;1.70;;;;;;;;;;5037624;28;20401;-82
2023/04/29 04:14:41;;;;;;;7.13;1.38;;;;;;;;;;5037906;28;20040;-82
2023/04/29 04:17:12;;;;;;;5.95;1.83;;;;;;;;;;5053695;28;20040;-82
2023/04/29 04:19:44;;;;;;;7.60;1.65;;;;;;;;;;5041420;28;20033;-80
2023/04/29 04:22:10;;;;;;;5.70;1.60;;;;;;;;;;5045022;28;20037;-81
2023/04/29 04:24:42;;;;;;;6.15;1.55;;;;;;;;;;5043922;28;20115;-81
2023/04/29 04:27:14;;;;;;;5.30;1.55;;;;;;;;;;5036452;28;20045;-82
2023/04/29 04:29:40;;;;;;;6.97;1.77;;;;;;;;;;5042040;28;20033;-82
2023/04/29 04:32:11;;;;;;;8.38;1.75;;;;;;;;;;5043779;28;20029;-82
2023/04/29 04:34:43;;;;;;;4.85;1.98;;;;;;;;;;5043645;28;20049;-82
2023/04/29 04:37:09;;;;;;;3.67;1.40;;;;;;;;;;5044064;28;20436;-81
2023/04/29 04:39:40;;;;;;;5.88;1.77;;;;;;;;;;5046406;28;20029;-81
2023/04/29 04:42:12;;;;;;;5.88;1.55;;;;;;;;;;5038386;28;20400;-82
2023/04/29 04:44:38;;;;;;;2.97;1.60;;;;;;;;;;5039960;28;20033;-82
2023/04/29 04:47:10;;;;;;;3.55;1.60;;;;;;;;;;5038390;28;20487;-82
2023/04/29 04:49:43;;;;;;;3.13;1.50;;;;;;;;;;5053158;28;20423;-81
2023/04/29 04:52:08;;;;;;;7.32;1.98;;;;;;;;;;5040481;28;20099;-81
2023/04/29 04:54:40;;;;;;;4.10;1.83;;;;;;;;;;5040643;28;20037;-82
2023/04/29 04:57:12;;;;;;;4.13;1.52;;;;;;;;;;5041659;28;20392;-82
2023/04/29 04:59:38;;;;;;;3.75;1.67;;;;;;;;;;5042471;28;20037;-82
2023/04/29 05:02:10;;;;;;;4.60;2.05;;;;;;;;;;5040713;28;20034;-82
2023/04/29 05:04:43;;;;;;;4.15;1.40;;;;;;;;;;5042297;28;20045;-80
2023/04/29 05:07:09;;;;;;;6.45;1.85;;;;;;;;;;5045227;28;20049;-82
2023/04/29 05:09:41;;;;;;;4.88;1.65;;;;;;;;;;5040394;28;20056;-81
2023/04/29 05:12:13;;;;;;;5.78;1.67;;;;;;;;;;5046888;28;20393;-82
2023/04/29 05:14:39;;;;;;;4.85;1.35;;;;;;;;;;5042754;28;20038;-80
2023/04/29 05:17:10;;;;;;;3.22;1.38;;;;;;;;;;5036299;28;20470;-82
2023/04/29 05:19:43;;;;;;;3.65;1.35;;;;;;;;;;5037266;28;20040;-81
2023/04/29 05:22:08;;;;;;;2.80;1.35;;;;;;;;;;5040562;28;20037;-81
2023/04/29 05:24:40;;;;;;;4.30;1.50;;;;;;;;;;5039827;28;20037;-81
2023/04/29 05:27:13;;;;;;;2.40;1.27;;;;;;;;;;5036913;28;20038;-82
2023/04/29 05:29:38;;;;;;;4.45;1.60;;;;;;;;;;5031212;28;20052;-81
2023/04/29 05:32:12;;;;;;;2.65;1.33;;;;;;;;;;5042375;28;20029;-82
2023/04/29 05:34:43;;;;;;;3.00;1.40;;;;;;;;;;5024758;28;20034;-81
2023/04/29 05:37:09;;;;;;;2.63;1.10;;;;;;;;;;5036663;28;20040;-82
2023/04/29 05:39:40;;;;;;;10.18;1.52;;;;;;;;;;5037503;28;20028;-80
2023/04/29 05:42:12;;;;;;;2.47;1.10;;;;;;;;;;5046802;28;20047;-83
2023/04/29 05:44:38;;;;;;;2.75;1.10;;;;;;;;;;5043768;28;20052;-82
2023/04/29 05:47:10;;;;;;;1.88;1.00;;;;;;;;;;5051768;28;20112;-83
2023/04/29 05:49:42;;;;;;;67.88;3.83;;;;;;;;;;5045114;28;20120;-82
2023/04/29 05:52:08;;;;;;;2.65;1.30;;;;;;;;;;5043621;28;20085;-83
2023/04/29 05:54:40;;;;;;;361.42;19.58;;;;;;;;;;5046927;28;20496;-82
2023/04/29 05:57:11;;;;;;;140.20;8.20;;;;;;;;;;5037573;28;20112;-84
2023/04/29 05:59:37;;;;;;;67.35;4.25;;;;;;;;;;5042076;28;20412;-82
2023/04/29 06:02:09;;;;;;;170.30;8.68;;;;;;;;;;5037658;28;20029;-83
2023/04/29 06:04:42;;;;;;;333.15;16.13;;;;;;;;;;5036812;28;20458;-81
2023/04/29 06:07:08;;;;;;;24.88;1.98;;;;;;;;;;5036118;28;20115;-83
2023/04/29 06:09:41;;;;;;;26.92;2.03;;;;;;;;;;5041285;28;20034;-83
2023/04/29 06:12:13;;;;;;;4.80;1.10;;;;;;;;;;5024667;28;20048;-83
2023/04/29 06:14:39;;;;;;;49.88;3.38;;;;;;;;;;5041782;28;20045;-82
2023/04/29 06:17:11;;;;;;;68.05;3.58;;;;;;;;;;5036244;28;20033;-83
2023/04/29 06:19:42;;;;;;;4.53;0.90;;;;;;;;;;5035847;28;20091;-82
2023/04/29 06:22:08;;;;;;;3.90;1.10;;;;;;;;;;5039240;28;20056;-83
2023/04/29 06:24:39;;;;;;;4.78;1.05;;;;;;;;;;5038689;28;20385;-82
2023/04/29 06:27:11;;;;;;;1.52;0.80;;;;;;;;;;5051174;28;20041;-82
2023/04/29 06:29:37;;;;;;;1.50;0.90;;;;;;;;;;5035290;28;20496;-82
2023/04/29 06:32:08;;;;;;;3.50;1.10;;;;;;;;;;5038971;28;20041;-83
2023/04/29 06:34:40;;;;;;;2.10;1.13;;;;;;;;;;5035271;28;20038;-84
2023/04/29 06:37:06;;;;;;;3.40;1.00;;;;;;;;;;5034285;28;20037;-81
2023/04/29 06:39:37;;;;;;;2.97;0.90;;;;;;;;;;5034872;28;20041;-82
2023/04/29 06:42:09;;;;;;;1.98;1.00;;;;;;;;;;5040177;28;20065;-81
2023/04/29 06:44:35;;;;;;;3.88;0.93;;;;;;;;;;5040101;28;20044;-80
2023/04/29 06:47:07;;;;;;;4.57;0.90;;;;;;;;;;5036341;28;20033;-82
2023/04/29 06:49:39;;;;;;;1.67;0.80;;;;;;;;;;5044790;28;20052;-81
2023/04/29 06:52:05;;;;;;;2.30;1.07;;;;;;;;;;5039472;28;20061;-82
2023/04/29 06:54:37;;;;;;;3.13;1.20;;;;;;;;;;5033294;28;20087;-82
2023/04/29 06:57:09;;;;;;;1.70;0.82;;;;;;;;;;5037497;28;20124;-81
2023/04/29 06:59:35;;;;;;;1.92;0.90;;;;;;;;;;5033167;28;20037;-81
2023/04/29 07:02:07;;;;;;;2.88;1.00;;;;;;;;;;5034799;28;20111;-84
2023/04/29 07:04:40;;;;;;;1.40;0.77;;;;;;;;;;5032694;28;20442;-84
2023/04/29 07:07:05;;;;;;;1.83;1.00;;;;;;;;;;5032854;28;20042;-85
2023/04/29 07:09:37;;;;;;;2.47;1.20;;;;;;;;;;5033550;28;20026;-85
2023/04/29 07:12:09;;;;;;;2.20;1.27;;;;;;;;;;5032046;28;20047;-83
2023/04/29 07:14:36;;;;;;;1.50;0.90;;;;;;;;;;5034990;28;20037;-79
2023/04/29 07:17:08;;;;;;;1.48;0.90;;;;;;;;;;5033281;28;20277;-82
2023/04/29 07:19:40;;;;;;;2.08;0.95;;;;;;;;;;5039817;28;20040;-82
2023/04/29 07:22:06;;;;;;;1.98;1.08;;;;;;;;;;5044705;28;20053;-82
2023/04/29 07:24:37;;;;;;;1.80;1.00;;;;;;;;;;5045598;28;20030;-80
2023/04/29 07:27:09;;;;;;;2.45;1.08;;;;;;;;;;5036086;28;20076;-82
2023/04/29 07:29:35;;;;;;;4.90;1.23;;;;;;;;;;5042223;28;20402;-78
2023/04/29 07:32:06;;;;;;;2.22;1.30;;;;;;;;;;5035967;28;20025;-81
2023/04/29 07:34:39;;;;;;;6.47;4.45;;;;;;;;;;5060761;28;20496;-81
2023/04/29 07:37:04;;;;;;;8.02;5.07;;;;;;;;;;5029724;28;20042;-81
2023/04/29 07:39:35;;;;;;;13.82;9.43;;;;;;;;;;5036224;28;20040;-81
2023/04/29 07:42:07;;;;;;;14.68;9.55;;;;;;;;;;5049047;28;20120;-81
2023/04/29 07:44:33;;;;;;;12.00;9.30;;;;;;;;;;5043273;28;20034;-81
2023/04/29 07:47:04;;;;;;;13.48;10.10;;;;;;;;;;5039596;28;20036;-81
2023/04/29 07:49:37;;;;;;;14.05;10.48;;;;;;;;;;5038903;28;20096;-81
2023/04/29 07:52:04;;;;;;;12.93;9.68;;;;;;;;;;5047726;28;20131;-81
2023/04/29 07:54:35;;;;;;;12.90;9.27;;;;;;;;;;5040364;28;20045;-81
2023/04/29 07:57:07;;;;;;;14.07;10.05;;;;;;;;;;5046135;28;20087;-81
2023/04/29 07:59:33;;;;;;;14.63;10.32;;;;;;;;;;5033685;28;20053;-81
2023/04/29 08:02:04;;;;;;;12.40;9.75;;;;;;;;;;5029820;28;20029;-79
2023/04/29 08:04:40;;;;;;;16.30;12.45;;;;;;;;;;5036964;28;20063;-81
2023/04/29 08:07:11;;;;;;;18.70;13.95;;;;;;;;;;5038593;28;20037;-81
2023/04/29 08:09:44;;;;;;;20.27;14.07;;;;;;;;;;5051324;28;20063;-81
2023/04/29 08:12:09;;;;;;;17.77;13.32;;;;;;;;;;5036569;28;20427;-81
2023/04/29 08:14:41;;;;;;;17.38;12.57;;;;;;;;;;5040289;28;20087;-82
2023/04/29 08:17:13;;;;;;;17.17;12.57;;;;;;;;;;5030690;28;20396;-82
2023/04/29 08:19:39;;;;;;;21.33;16.05;;;;;;;;;;5029748;28;20548;-82
2023/04/29 08:22:12;;;;;;;21.38;16.65;;;;;;;;;;5030540;28;20038;-82
2023/04/29 08:24:44;;;;;;;19.05;14.93;;;;;;;;;;5042588;28;20037;-82
2023/04/29 08:27:10;;;;;;;20.93;15.57;;;;;;;;;;5036280;28;20041;-82
2023/04/29 08:29:42;;;;;;;21.42;15.27;;;;;;;;;;5044554;28;20282;-83
2023/04/29 08:32:13;;;;;;;21.50;15.50;;;;;;;;;;5035074;28;20037;-81
2023/04/29 08:34:40;;;;;;;17.47;13.53;;;;;;;;;;5050551;28;20041;-81
2023/04/29 08:37:12;;;;;;;19.00;13.35;;;;;;;;;;5039036;28;20389;-82
2023/04/29 08:39:47;;;;;;;17.70;12.97;;;;;;;;;;5040611;28;20380;-80
2023/04/29 08:42:35;;;;;;;;;;;;;;;;;;5041088;28;20286;-81
2023/04/29 08:45:07;;;;;;;17.45;13.80;;;;;;;;;;5054144;28;19974;-81
2023/04/29 08:47:33;;;;;;;18.65;13.75;;;;;;;;;;5038921;28;20029;-81
2023/04/29 08:50:08;;;;;;;17.70;13.18;;;;;;;;;;5045794;28;20051;-82
2023/04/29 08:52:40;;;;;;;18.77;12.95;;;;;;;;;;5037358;28;20060;-81
2023/04/29 08:55:06;;;;;;;17.92;13.23;;;;;;;;;;5044988;28;20538;-81
2023/04/29 08:57:41;;;;;;;16.42;12.93;;;;;;;;;;5038744;28;20037;-81
2023/04/29 09:00:14;;;;;;;18.58;13.20;;;;;;;;;;5044793;28;20040;-81
2023/04/29 09:02:52;;;;;;;16.90;13.15;;;;;;;;;;5038348;28;20033;-80
2023/04/29 09:05:25;;;;;;;17.17;12.77;;;;;;;;;;5032794;28;20049;-81
2023/04/29 09:07:51;;;;;;;19.08;13.63;;;;;;;;;;5043639;28;20056;-81
2023/04/29 09:10:23;;;;;;;16.58;13.23;;;;;;;;;;5031034;28;20389;-81
2023/04/29 09:12:57;;;;;;;19.60;13.57;;;;;;;;;;5034852;28;20041;-80
2023/04/29 09:15:22;;;;;;;16.88;12.85;;;;;;;;;;5039994;28;20033;-81
2023/04/29 09:17:55;;;;;;;18.33;13.43;;;;;;;;;;5041816;28;20074;-80
2023/04/29 09:20:28;;;;;;;17.10;12.82;;;;;;;;;;5047809;28;20034;-81
2023/04/29 09:23:02;;;;;;;;;;;;;;;;;;5043113;28;20047;-81
2023/04/29 09:25:35;;;;;;;16.50;12.27;;;;;;;;;;5040114;28;20640;-81
2023/04/29 09:28:21;;;;;;;21.05;12.40;;;;;;;;;;5035383;28;20104;-81
2023/04/29 09:30:53;;;;;;;16.52;13.00;;;;;;;;;;5036744;28;20049;-80
2023/04/29 09:33:19;;;;;;;20.80;12.93;;;;;;;;;;5035707;28;20041;-80
2023/04/29 09:35:50;;;;;;;18.20;12.90;;;;;;;;;;5045207;28;20044;-80
2023/04/29 09:38:22;;;;;;;17.40;12.85;;;;;;;;;;5042193;28;20527;-81
2023/04/29 09:40:49;;;;;;;15.15;11.95;;;;;;;;;;5036070;28;20042;-80
2023/04/29 09:43:23;;;;;;;19.10;12.75;;;;;;;;;;5041529;28;20037;-81
2023/04/29 09:45:55;;;;;;;17.63;13.23;;;;;;;;;;5058099;28;20048;-81
2023/04/29 09:48:21;;;;;;;19.60;13.35;;;;;;;;;;5050662;28;20041;-81
2023/04/29 09:51:11;;;;;;;19.33;13.57;;;;;;;;;;5053626;28;20062;-80
2023/04/29 09:53:37;;;;;;;20.88;14.07;;;;;;;;;;5032982;28;20432;-80
2023/04/29 09:56:04;;;;;;;19.15;14.07;;;;;;;;;;5037749;28;20438;-80
2023/04/29 09:58:42;;;;;;;19.35;13.60;;;;;;;;;;5035760;28;20033;-81
2023/04/29 10:01:08;;;;;;;21.67;14.93;;;;;;;;;;5034372;28;20050;-81
2023/04/29 10:03:50;;;;;;;19.27;13.93;;;;;;;;;;5061642;28;20160;-81
2023/04/29 10:06:16;;;;;;;20.53;14.63;;;;;;;;;;5037645;28;20098;-81
2023/04/29 10:08:43;;;;;;;21.13;14.85;;;;;;;;;;5044354;28;20439;-80
2023/04/29 10:11:22;;;;;;;22.25;14.98;;;;;;;;;;5052746;28;20067;-81
2023/04/29 10:13:49;;;;;;;22.10;14.98;;;;;;;;;;5052574;28;20151;-79
2023/04/29 10:16:35;;;;;;;22.48;14.88;;;;;;;;;;5043108;28;20038;-80
2023/04/29 10:19:05;;;;;;;21.58;15.57;;;;;;;;;;5039179;28;20741;-81
2023/04/29 10:21:44;;;;;;;23.45;15.55;;;;;;;;;;5034868;28;20032;-80
2023/04/29 10:24:12;;;;;;;19.85;15.07;;;;;;;;;;5048238;28;20056;-80
2023/04/29 10:26:52;;;;;;;23.52;15.45;;;;;;;;;;5042949;28;20025;-80
2023/04/29 10:29:18;;;;;;;21.98;14.88;;;;;;;;;;5039721;28;20037;-80
2023/04/29 10:31:58;;;;;;;22.65;16.38;;;;;;;;;;5032565;28;20037;-80
2023/04/29 10:34:24;;;;;;;23.80;16.35;;;;;;;;;;5036694;28;20040;-81
2023/04/29 10:36:50;;;;;;;21.58;14.73;;;;;;;;;;5057394;28;20032;-81
2023/04/29 10:39:37;;;;;;;22.08;14.75;;;;;;;;;;5059790;28;20026;-81
2023/04/29 10:42:04;;;;;;;23.58;16.45;;;;;;;;;;5031938;28;20401;-81
2023/04/29 10:45:21;;;;;;;25.05;15.07;;;;;;;;;;5040400;28;20029;-80
2023/04/29 10:48:05;;;;;;;23.48;14.85;;;;;;;;;;5042418;28;20060;-81
2023/04/29 10:50:52;;;;;;;25.67;14.65;;;;;;;;;;5041592;28;20042;-82
2023/04/29 10:53:18;;;;;;;26.08;16.17;;;;;;;;;;5037502;28;20063;-82
2023/04/29 10:56:09;;;;;;;27.95;16.48;;;;;;;;;;5038340;28;20033;-79
2023/04/29 10:58:45;;;;;;;23.83;14.82;;;;;;;;;;5048118;28;20044;-82
2023/04/29 11:01:23;;;;;;;23.92;14.60;;;;;;;;;;5031883;28;20062;-82
2023/04/29 11:04:09;;;;;;;22.30;14.23;;;;;;;;;;5034445;28;20037;-79
2023/04/29 11:06:53;;;;;;;25.55;15.13;;;;;;;;;;5038926;28;20112;-81
2023/04/29 11:09:29;;;;;;;24.20;14.85;;;;;;;;;;5029204;28;20385;-81
2023/04/29 11:12:12;;;;;;;25.05;14.68;;;;;;;;;;5044233;28;20033;-81
2023/04/29 11:14:49;;;;;;;24.42;13.70;;;;;;;;;;5041803;28;20039;-81
2023/04/29 11:17:29;;;;;;;19.70;12.50;;;;;;;;;;5042005;28;20155;-80
2023/04/29 11:19:56;;;;;;;21.33;12.23;;;;;;;;;;5045180;28;20029;-81
2023/04/29 11:22:21;;;;;;;22.92;14.00;;;;;;;;;;5051204;28;20056;-81
2023/04/29 11:25:10;;;;;;;24.48;14.90;;;;;;;;;;5040589;28;20111;-82
2023/04/29 11:27:38;;;;;;;20.42;12.13;;;;;;;;;;5036486;28;20044;-83
2023/04/29 11:30:17;;;;;;;19.77;11.90;;;;;;;;;;5063336;28;20029;-81
2023/04/29 11:32:43;;;;;;;23.85;14.38;;;;;;;;;;5026366;28;20429;-81
2023/04/29 11:35:15;;;;;;;24.38;14.32;;;;;;;;;;5032864;28;20033;-81
2023/04/29 11:37:53;;;;;;;24.67;13.95;;;;;;;;;;5031472;28;20668;-80
2023/04/29 11:40:20;;;;;;;22.88;14.65;;;;;;;;;;5045319;28;20423;-81
2023/04/29 11:42:47;;;;;;;21.58;12.70;;;;;;;;;;5044966;28;20045;-82
2023/04/29 11:45:26;;;;;;;20.70;13.50;;;;;;;;;;5034355;28;20399;-81
2023/04/29 11:47:52;;;;;;;23.90;14.63;;;;;;;;;;5036573;28;20041;-80
2023/04/29 11:50:18;;;;;;;19.17;12.57;;;;;;;;;;5047082;28;20032;-81
2023/04/29 11:52:57;;;;;;;22.08;13.20;;;;;;;;;;5036183;28;20061;-81
2023/04/29 11:55:23;;;;;;;24.27;13.85;;;;;;;;;;5041492;28;20124;-81
2023/04/29 11:57:51;;;;;;;25.42;14.32;;;;;;;;;;5057422;28;20112;-81
2023/04/29 12:00:30;;;;;;;23.10;14.00;;;;;;;;;;5050004;28;20037;-81
2023/04/29 12:02:55;;;;;;;21.80;13.85;;;;;;;;;;5042280;28;20041;-81
2023/04/29 12:05:37;;;;;;;25.13;14.48;;;;;;;;;;5036870;28;20029;-82
2023/04/29 12:08:03;;;;;;;19.38;13.18;;;;;;;;;;5050299;28;20056;-81
2023/04/29 12:10:29;;;;;;;24.48;14.50;;;;;;;;;;5038186;28;20038;-82
2023/04/29 12:13:08;;;;;;;22.80;14.05;;;;;;;;;;5028957;28;20087;-82
2023/04/29 12:15:34;;;;;;;23.30;13.68;;;;;;;;;;5037404;28;20047;-82
2023/04/29 12:18:00;;;;;;;23.05;14.25;;;;;;;;;;5046225;28;20033;-81
2023/04/29 12:20:38;;;;;;;22.15;13.52;;;;;;;;;;5037556;28;20061;-82
2023/04/29 12:23:10;;;;;;;21.15;14.23;;;;;;;;;;5040130;28;20080;-82
2023/04/29 12:25:54;;;;;;;20.25;12.90;;;;;;;;;;5044690;28;20033;-82
2023/04/29 12:28:20;;;;;;;20.48;13.05;;;;;;;;;;5038695;28;20408;-80
2023/04/29 12:30:53;;;;;;;25.20;12.27;;;;;;;;;;5045138;28;20127;-81
2023/04/29 12:33:30;;;;;;;20.17;12.35;;;;;;;;;;5048121;28;20037;-81
2023/04/29 12:36:01;;;;;;;23.35;12.10;;;;;;;;;;5036334;28;20068;-82
2023/04/29 12:38:29;;;;;;;26.73;14.88;;;;;;;;;;5048928;28;20404;-82
2023/04/29 12:41:04;;;;;;;21.92;13.07;;;;;;;;;;5038163;28;20080;-81
2023/04/29 12:43:36;;;;;;;20.02;12.65;;;;;;;;;;5050586;28;20041;-82
2023/04/29 12:46:13;;;;;;;23.90;12.98;;;;;;;;;;5035968;28;20128;-82
2023/04/29 12:48:46;;;;;;;15.75;10.20;;;;;;;;;;5041563;28;20069;-82
2023/04/29 12:51:11;;;;;;;18.70;10.63;;;;;;;;;;5039959;28;20071;-81
2023/04/29 12:53:43;;;;;;;20.50;11.30;;;;;;;;;;5036555;28;20076;-82
2023/04/29 12:56:16;;;;;;;25.95;13.10;;;;;;;;;;5041127;28;20083;-80
2023/04/29 12:58:42;;;;;;;17.02;10.70;;;;;;;;;;5027858;28;20036;-82
2023/04/29 13:01:15;;;;;;;19.30;10.90;;;;;;;;;;5040493;28;20041;-82
2023/04/29 13:03:48;;;;;;;18.95;11.75;;;;;;;;;;5040152;28;20052;-81
2023/04/29 13:06:20;;;;;;;13.38;8.98;;;;;;;;;;5024241;28;20116;-81
2023/04/29 13:08:46;;;;;;;19.42;10.18;;;;;;;;;;5032519;28;20098;-82
2023/04/29 13:11:17;;;;;;;17.70;10.35;;;;;;;;;;5039114;28;20346;-83
2023/04/29 13:13:50;;;;;;;19.48;11.35;;;;;;;;;;5036021;28;20148;-82
2023/04/29 13:16:16;;;;;;;16.37;9.17;;;;;;;;;;5040616;28;20041;-82
2023/04/29 13:18:47;;;;;;;17.95;10.10;;;;;;;;;;5043209;28;20130;-83
2023/04/29 13:21:20;;;;;;;16.30;9.60;;;;;;;;;;5045821;28;20041;-85
2023/04/29 13:23:47;;;;;;;17.73;10.15;;;;;;;;;;5045680;28;20033;-81
2023/04/29 13:26:18;;;;;;;16.75;9.98;;;;;;;;;;5045426;28;20476;-82
2023/04/29 13:28:51;;;;;;;17.20;10.10;;;;;;;;;;5044523;28;20037;-82
2023/04/29 13:31:16;;;;;;;13.73;8.82;;;;;;;;;;5042577;28;20040;-83
2023/04/29 13:33:48;;;;;;;16.38;9.30;;;;;;;;;;5039612;28;20372;-83
2023/04/29 13:36:19;;;;;;;8.00;4.97;;;;;;;;;;5042395;28;20048;-85
2023/04/29 13:38:45;;;;;;;10.20;6.18;;;;;;;;;;5036301;28;20044;-83
2023/04/29 13:41:16;;;;;;;8.85;4.90;;;;;;;;;;5038639;28;20033;-83
2023/04/29 13:43:48;;;;;;;10.45;5.07;;;;;;;;;;5043479;28;20170;-83
2023/04/29 13:46:14;;;;;;;6.43;4.18;;;;;;;;;;5038576;28;20099;-85
2023/04/29 13:48:45;;;;;;;13.38;7.75;;;;;;;;;;5041079;28;20037;-84
2023/04/29 13:51:17;;;;;;;11.98;7.80;;;;;;;;;;5036792;28;20040;-83
2023/04/29 13:53:43;;;;;;;16.90;8.88;;;;;;;;;;5044434;28;20103;-84
2023/04/29 13:56:15;;;;;;;12.05;7.07;;;;;;;;;;5044954;28;20393;-84
2023/04/29 13:58:48;;;;;;;14.90;9.52;;;;;;;;;;5041712;28;20048;-84
2023/04/29 14:01:14;;;;;;;16.80;9.15;;;;;;;;;;5044639;28;20041;-83
2023/04/29 14:03:45;;;;;;;14.00;8.32;;;;;;;;;;5044056;28;20039;-84
2023/04/29 14:06:17;;;;;;;11.70;7.65;;;;;;;;;;5038237;28;20052;-83
2023/04/29 14:08:43;;;;;;;10.93;7.13;;;;;;;;;;5045742;28;20079;-83
2023/04/29 14:11:15;;;;;;;12.40;6.35;;;;;;;;;;5049039;28;20388;-82
2023/04/29 14:13:47;;;;;;;8.93;5.40;;;;;;;;;;5041901;28;20033;-83
2023/04/29 14:16:13;;;;;;;9.18;5.70;;;;;;;;;;5046277;28;20033;-83
2023/04/29 14:18:45;;;;;;;13.73;7.43;;;;;;;;;;5048795;28;20083;-82
2023/04/29 14:21:17;;;;;;;8.82;5.10;;;;;;;;;;5044881;28;20041;-83
2023/04/29 14:23:43;;;;;;;9.73;6.50;;;;;;;;;;5042746;28;20068;-82
2023/04/29 14:26:15;;;;;;;9.07;5.50;;;;;;;;;;5039050;28;20067;-82
2023/04/29 14:28:46;;;;;;;8.70;5.20;;;;;;;;;;5038034;28;20045;-83
2023/04/29 14:31:12;;;;;;;10.07;5.25;;;;;;;;;;5032858;28;20068;-81
2023/04/29 14:33:44;;;;;;;9.55;5.18;;;;;;;;;;5035942;28;20055;-83
2023/04/29 14:36:15;;;;;;;9.70;5.53;;;;;;;;;;5033336;28;20048;-81
2023/04/29 14:38:41;;;;;;;11.65;5.20;;;;;;;;;;5033412;28;20037;-83
2023/04/29 14:41:12;;;;;;;11.43;6.68;;;;;;;;;;5047389;28;20045;-82
2023/04/29 14:43:44;;;;;;;11.80;6.43;;;;;;;;;;5041803;28;20041;-84
2023/04/29 14:46:10;;;;;;;9.35;5.22;;;;;;;;;;5040338;28;20037;-82
2023/04/29 14:48:42;;;;;;;8.07;5.05;;;;;;;;;;5038921;28;20151;-83
2023/04/29 14:51:13;;;;;;;12.57;6.35;;;;;;;;;;5040064;28;20076;-83
2023/04/29 14:53:39;;;;;;;11.63;6.05;;;;;;;;;;5048371;28;20052;-82
2023/04/29 14:56:11;;;;;;;9.48;6.05;;;;;;;;;;5043331;28;20037;-82
2023/04/29 14:58:42;;;;;;;9.02;4.25;;;;;;;;;;5047091;28;20060;-83